createdAt,value
2023-08-07T00:00:10.950Z,94206.86
2023-08-07T00:02:59.792Z,94216.49
2023-08-07T00:05:43.730Z,94219.02
2023-08-07T00:08:12.267Z,94218.71
2023-08-07T00:10:41.305Z,94219.13
2023-08-07T00:13:09.949Z,94220.75
2023-08-07T00:15:42.025Z,94218.75
2023-08-07T00:18:10.792Z,94222.70
2023-08-07T00:26:20.268Z,94220.49
2023-08-07T00:29:58.422Z,94222.39
2023-08-07T00:33:39.337Z,94226.66
2023-08-07T00:37:29.037Z,94228.91
2023-08-07T00:41:18.328Z,94227.15
2023-08-07T00:44:57.968Z,94231.33
2023-08-07T00:48:47.176Z,94234.10
2023-08-07T00:57:17.487Z,94236.08
2023-08-07T01:01:27.987Z,94237.30
2023-08-07T01:05:18.408Z,94245.04
2023-08-07T01:11:52.957Z,94249.67
2023-08-07T01:14:45.196Z,94254.38
2023-08-07T01:17:20.796Z,94257.83
2023-08-07T01:19:53.739Z,94258.46
2023-08-07T01:22:23.078Z,94255.66
2023-08-07T01:30:52.077Z,94256.89
2023-08-07T01:34:50.650Z,94261.38
2023-08-07T01:38:33.222Z,94260.24
2023-08-07T01:42:06.518Z,94265.88
2023-08-07T01:45:54.469Z,94263.01
2023-08-07T01:49:36.314Z,94261.88
2023-08-07T01:53:26.252Z,94272.82
2023-08-07T01:57:19.412Z,94273.24
2023-08-07T02:00:32.745Z,94276.73
2023-08-07T02:03:01.248Z,94281.47
2023-08-07T02:05:29.861Z,94285.92
2023-08-07T02:07:59.066Z,94290.27
2023-08-07T02:10:29.422Z,94287.86
2023-08-07T02:14:26.938Z,94289.21
2023-08-07T02:18:16.391Z,94290.05
2023-08-07T02:22:05.722Z,94286.36
2023-08-07T02:25:55.226Z,94293.65
2023-08-07T02:29:44.665Z,94296.14
2023-08-07T02:33:34.092Z,94303.21
2023-08-07T02:37:16.751Z,94303.42
2023-08-07T02:41:06.292Z,94307.59
2023-08-07T02:44:29.855Z,94312.98
2023-08-07T02:48:13.276Z,94311.62
2023-08-07T02:51:37.717Z,94315.96
2023-08-07T02:55:26.995Z,94318.36
2023-08-07T02:59:17.418Z,94313.33
2023-08-07T03:03:00.900Z,94315.63
2023-08-07T03:10:03.469Z,94322.87
2023-08-07T03:13:51.144Z,94328.17
2023-08-07T03:20:35.564Z,94332.00
2023-08-07T03:23:04.770Z,94337.14
2023-08-07T03:25:33.252Z,94344.52
2023-08-07T03:28:02.130Z,94345.95
2023-08-07T03:30:30.763Z,94341.98
2023-08-07T03:32:59.775Z,94348.11
2023-08-07T03:36:14.937Z,94351.25
2023-08-07T03:38:44.028Z,94355.98
2023-08-07T03:41:13.164Z,94356.16
2023-08-07T03:49:42.980Z,94359.29
2023-08-07T03:52:11.963Z,94366.41
2023-08-07T03:54:41.265Z,94368.28
2023-08-07T03:57:12.611Z,94370.11
2023-08-07T03:59:42.318Z,94374.89
2023-08-07T04:02:14.329Z,94380.32
2023-08-07T04:05:15.422Z,94376.70
2023-08-07T04:07:44.007Z,94377.73
2023-08-07T04:10:12.807Z,94377.85
2023-08-07T04:12:41.843Z,94376.56
2023-08-07T04:20:13.460Z,94377.41
2023-08-07T04:22:55.107Z,94381.35
2023-08-07T04:29:49.972Z,94375.86
2023-08-07T04:33:11.763Z,94374.50
2023-08-07T04:36:23.261Z,94376.91
2023-08-07T04:39:26.285Z,94376.62
2023-08-07T04:45:19.673Z,94388.73
2023-08-07T04:51:24.523Z,94398.06
2023-08-07T05:02:05.610Z,94412.56
2023-08-07T05:06:12.230Z,94418.08
2023-08-07T05:10:02.163Z,94421.22
2023-08-07T05:13:51.907Z,94427.41
2023-08-07T05:17:41.327Z,94444.02
2023-08-07T05:21:33.708Z,94448.14
2023-08-07T05:25:23.264Z,94448.01
2023-08-07T05:29:12.780Z,94448.88
2023-08-07T05:32:54.823Z,94463.12
2023-08-07T05:36:44.526Z,94463.55
2023-08-07T05:40:34.209Z,94466.10
2023-08-07T05:44:23.953Z,94474.73
2023-08-07T05:48:13.528Z,94475.01
2023-08-07T05:52:03.071Z,94478.68
2023-08-07T05:55:49.955Z,94476.52
2023-08-07T05:59:39.462Z,94477.13
2023-08-07T06:03:29.139Z,94478.90
2023-08-07T06:07:18.922Z,94482.59
2023-08-07T06:11:08.715Z,94489.67
2023-08-07T06:14:58.503Z,94489.82
2023-08-07T06:18:46.792Z,94491.98
2023-08-07T06:22:36.668Z,94488.34
2023-08-07T06:26:26.124Z,94481.35
2023-08-07T06:30:15.945Z,94480.77
2023-08-07T06:34:05.803Z,94479.08
2023-08-07T06:37:55.209Z,94483.02
2023-08-07T06:41:44.799Z,94487.77
2023-08-07T06:45:34.118Z,94486.41
2023-08-07T06:49:23.802Z,94486.34
2023-08-07T06:53:13.764Z,94490.69
2023-08-07T06:57:03.392Z,94506.16
2023-08-07T07:00:53.414Z,94517.30
2023-08-07T07:04:42.998Z,94512.66
2023-08-07T07:08:32.534Z,94523.40
2023-08-07T07:12:22.157Z,94531.02
2023-08-07T07:16:12.569Z,94535.65
2023-08-07T07:20:02.154Z,94543.87
2023-08-07T07:23:51.819Z,94544.88
2023-08-07T07:27:41.314Z,94539.08
2023-08-07T07:31:33.513Z,94545.30
2023-08-07T07:35:16.169Z,94540.41
2023-08-07T07:39:06.869Z,94548.70
2023-08-07T07:42:55.221Z,94544.69
2023-08-07T07:46:44.921Z,94552.48
2023-08-07T07:50:34.437Z,94552.65
2023-08-07T07:54:23.929Z,94551.64
2023-08-07T07:58:13.260Z,94559.89
2023-08-07T08:02:02.684Z,94563.76
2023-08-07T08:05:52.302Z,94569.81
2023-08-07T08:09:41.981Z,94577.54
2023-08-07T08:13:31.684Z,94591.38
2023-08-07T08:17:14.075Z,94593.36
2023-08-07T08:21:03.413Z,94598.13
2023-08-07T08:24:52.943Z,94588.76
2023-08-07T08:28:41.359Z,94590.77
2023-08-07T08:32:30.828Z,94599.66
2023-08-07T08:36:20.457Z,94605.66
2023-08-07T08:40:10.031Z,94611.64
2023-08-07T08:43:59.506Z,94620.36
2023-08-07T08:47:48.998Z,94618.30
2023-08-07T08:51:38.411Z,94619.31
2023-08-07T08:55:27.945Z,94619.80
2023-08-07T08:59:17.542Z,94623.73
2023-08-07T09:03:07.198Z,94619.70
2023-08-07T09:06:57.193Z,94618.68
2023-08-07T09:10:47.138Z,94625.13
2023-08-07T09:14:36.672Z,94619.78
2023-08-07T09:18:26.187Z,94624.24
2023-08-07T09:22:15.619Z,94624.20
2023-08-07T09:26:10.992Z,94625.38
2023-08-07T09:30:00.511Z,94628.91
2023-08-07T09:33:49.952Z,94630.52
2023-08-07T09:37:39.602Z,94620.54
2023-08-07T09:41:29.315Z,94620.95
2023-08-07T09:45:18.848Z,94624.88
2023-08-07T09:49:05.934Z,94628.84
2023-08-07T09:52:48.742Z,94631.94
2023-08-07T09:56:38.160Z,94636.41
2023-08-07T10:00:28.291Z,94640.56
2023-08-07T10:04:17.833Z,94659.14
2023-08-07T10:08:05.780Z,94670.13
2023-08-07T10:11:55.477Z,94672.76
2023-08-07T10:15:44.940Z,94672.34
2023-08-07T10:19:34.418Z,94674.22
2023-08-07T10:23:21.542Z,94679.34
2023-08-07T10:27:11.238Z,94686.69
2023-08-07T10:30:52.274Z,94683.53
2023-08-07T10:34:14.086Z,94674.41
2023-08-07T10:38:01.672Z,94668.14
2023-08-07T10:41:52.481Z,94668.35
2023-08-07T10:45:41.952Z,94683.41
2023-08-07T10:49:37.106Z,94673.84
2023-08-07T10:53:27.008Z,94674.54
2023-08-07T10:57:37.543Z,94657.42
2023-08-07T11:01:30.296Z,94663.10
2023-08-07T11:05:20.038Z,94653.52
2023-08-07T11:09:10.032Z,94665.44
2023-08-07T11:13:00.021Z,94667.14
2023-08-07T11:16:49.648Z,94670.73
2023-08-07T11:20:39.362Z,94678.33
2023-08-07T11:24:29.012Z,94686.95
2023-08-07T11:28:18.643Z,94685.96
2023-08-07T11:32:10.066Z,94691.27
2023-08-07T11:36:01.657Z,94697.94
2023-08-07T11:39:51.469Z,94695.23
2023-08-07T11:43:41.297Z,94684.33
2023-08-07T11:47:31.075Z,94690.88
2023-08-07T11:51:20.730Z,94701.48
2023-08-07T11:55:11.141Z,94720.33
2023-08-07T11:59:01.536Z,94735.98
2023-08-07T12:02:58.916Z,94749.36
2023-08-07T12:06:49.605Z,94761.48
2023-08-07T12:11:01.090Z,94774.38
2023-08-07T12:14:50.419Z,94785.59
2023-08-07T12:18:43.073Z,94803.48
2023-08-07T12:22:32.707Z,94816.15
2023-08-07T12:26:42.560Z,94819.44
2023-08-07T12:30:32.299Z,94826.07
2023-08-07T12:38:15.770Z,94839.98
2023-08-07T12:46:31.508Z,94829.20
2023-08-07T12:50:08.206Z,94823.86
2023-08-07T12:56:39.166Z,94830.05
2023-08-07T12:59:11.573Z,94825.60
2023-08-07T13:02:17.393Z,94820.77
2023-08-07T13:04:50.187Z,94815.96
2023-08-07T13:17:07.421Z,94818.92
2023-08-07T13:22:52.439Z,94809.80
2023-08-07T13:25:21.805Z,94805.88
2023-08-07T13:32:12.172Z,94812.77
2023-08-07T13:36:01.756Z,94819.73
2023-08-07T13:39:51.019Z,94817.44
2023-08-07T13:43:41.319Z,94812.73
2023-08-07T13:47:22.109Z,94811.66
2023-08-07T13:51:11.217Z,94810.89
2023-08-07T13:54:52.297Z,94810.48
2023-08-07T13:58:26.681Z,94805.79
2023-08-07T14:02:08.752Z,94802.39
2023-08-07T14:05:51.211Z,94797.40
2023-08-07T14:09:40.924Z,94809.41
2023-08-07T14:13:30.396Z,94808.39
2023-08-07T14:17:12.454Z,94803.42
2023-08-07T14:21:01.406Z,94804.10
2023-08-07T14:24:25.462Z,94807.54
2023-08-07T14:27:53.117Z,94808.98
2023-08-07T14:31:35.425Z,94804.91
2023-08-07T14:35:10.880Z,94803.16
2023-08-07T14:39:00.508Z,94805.67
2023-08-07T14:42:31.485Z,94802.60
2023-08-07T14:46:00.763Z,94807.85
2023-08-07T14:49:38.920Z,94802.88
2023-08-07T14:53:01.060Z,94800.39
2023-08-07T14:56:49.360Z,94800.61
2023-08-07T15:00:23.687Z,94801.70
2023-08-07T15:20:00.002Z,94806.60
2023-08-07T15:22:31.152Z,94808.23
2023-08-07T15:25:00.501Z,94805.91
2023-08-07T15:27:29.145Z,94808.55
2023-08-07T15:29:57.917Z,94807.38
2023-08-07T15:32:26.772Z,94808.50
2023-08-07T15:40:21.043Z,94814.56
2023-08-07T15:44:33.024Z,94818.59
2023-08-07T15:48:42.531Z,94818.33
2023-08-07T15:56:16.600Z,94824.90
2023-08-07T16:00:06.050Z,94827.17
2023-08-07T16:03:04.023Z,94821.02
2023-08-07T16:06:46.359Z,94821.66
2023-08-07T16:10:35.665Z,94821.77
2023-08-07T16:14:14.393Z,94820.85
2023-08-07T16:17:36.539Z,94825.70
2023-08-07T16:20:55.031Z,94832.14
2023-08-07T16:24:22.082Z,94831.09
2023-08-07T16:28:13.285Z,94833.89
2023-08-07T16:32:17.923Z,94833.34
2023-08-07T16:36:00.815Z,94843.29
2023-08-07T16:40:05.112Z,94844.50
2023-08-07T16:43:19.682Z,94844.08
2023-08-07T16:46:59.160Z,94848.61
2023-08-07T16:51:07.367Z,94849.20
2023-08-07T16:54:48.927Z,94850.42
2023-08-07T16:58:29.922Z,94853.34
2023-08-07T17:02:09.459Z,94853.84
2023-08-07T17:05:58.727Z,94862.60
2023-08-07T17:09:32.087Z,94866.80
2023-08-07T17:13:22.691Z,94870.59
2023-08-07T17:17:05.353Z,94878.63
2023-08-07T17:25:43.457Z,94893.80
2023-08-07T17:28:12.047Z,94898.52
2023-08-07T17:30:40.635Z,94900.59
2023-08-07T17:33:09.151Z,94904.53
2023-08-07T17:35:37.629Z,94908.36
2023-08-07T17:38:06.334Z,94911.79
2023-08-07T17:40:34.851Z,94915.16
2023-08-07T17:43:03.685Z,94918.77
2023-08-07T17:45:32.430Z,94922.77
2023-08-07T17:48:01.110Z,94928.83
2023-08-07T17:50:29.894Z,94935.84
2023-08-07T17:52:58.482Z,94937.08
2023-08-07T17:56:22.255Z,94939.88
2023-08-07T17:58:58.676Z,94943.30
2023-08-07T18:01:30.969Z,94949.30
2023-08-07T18:04:10.440Z,94955.85
2023-08-07T18:12:28.136Z,94961.08
2023-08-07T18:16:18.420Z,94964.25
2023-08-07T18:20:28.190Z,94964.00
2023-08-07T18:53:00.921Z,94997.79
2023-08-07T19:28:17.209Z,94994.75
2023-08-07T19:30:59.912Z,94997.45
2023-08-07T19:33:33.279Z,94997.57
2023-08-07T19:36:02.010Z,95000.51
2023-08-07T19:38:31.252Z,95006.77
2023-08-07T19:41:00.559Z,95010.41
2023-08-07T19:43:29.668Z,95012.34
2023-08-07T19:45:58.495Z,95011.55
2023-08-07T19:48:27.691Z,95013.09
2023-08-07T19:50:56.952Z,95012.11
2023-08-07T19:53:25.521Z,95017.96
2023-08-07T19:56:31.372Z,95018.69
2023-08-07T19:59:05.310Z,95022.16
2023-08-07T20:01:34.365Z,95024.02
2023-08-07T20:09:39.284Z,95023.41
2023-08-07T20:12:08.229Z,95024.73
2023-08-07T20:14:37.498Z,95023.59
2023-08-07T20:17:07.552Z,95020.94
2023-08-07T20:19:37.320Z,95019.30
2023-08-07T20:22:06.526Z,95024.54
2023-08-07T20:24:35.298Z,95025.42
2023-08-07T20:27:04.074Z,95027.24
2023-08-07T20:29:32.504Z,95035.04
2023-08-07T20:32:02.806Z,95032.94
2023-08-07T20:34:31.467Z,95032.56
2023-08-07T20:37:00.709Z,95033.77
2023-08-07T20:39:29.193Z,95033.48
2023-08-07T20:41:57.938Z,95033.14
2023-08-07T20:44:26.636Z,95033.48
2023-08-07T20:46:55.348Z,95035.20
2023-08-07T20:54:15.516Z,95032.50
2023-08-07T20:56:44.610Z,95029.89
2023-08-07T20:59:13.041Z,95031.96
2023-08-07T21:01:44.805Z,95039.80
2023-08-07T21:04:14.501Z,95039.29
2023-08-07T21:06:43.143Z,95036.46
2023-08-07T21:09:11.675Z,95032.34
2023-08-07T21:11:40.358Z,95031.69
2023-08-07T21:14:08.951Z,95036.36
2023-08-07T21:16:37.756Z,95037.99
2023-08-07T21:20:11.990Z,95038.75
2023-08-07T21:23:13.198Z,95038.01
2023-08-07T21:25:44.438Z,95039.28
2023-08-07T21:28:12.919Z,95038.70
2023-08-07T21:30:44.011Z,95040.16
2023-08-07T21:33:12.746Z,95044.55
2023-08-07T21:35:41.178Z,95047.70
2023-08-07T21:38:09.624Z,95049.69
2023-08-07T21:40:40.242Z,95051.70
2023-08-07T21:43:08.769Z,95050.85
2023-08-07T21:45:37.466Z,95050.64
2023-08-07T21:48:06.475Z,95058.49
2023-08-07T21:50:37.451Z,95065.30
2023-08-07T21:53:06.120Z,95070.05
2023-08-07T21:55:34.826Z,95069.39
2023-08-07T21:58:03.388Z,95073.54
2023-08-07T22:00:31.812Z,95068.67
2023-08-07T22:03:10.703Z,95066.98
2023-08-07T22:05:42.864Z,95068.77
2023-08-07T22:09:12.451Z,95064.17
2023-08-07T22:13:02.450Z,95069.55
2023-08-07T22:16:52.133Z,95069.98
2023-08-07T22:20:41.876Z,95075.61
2023-08-07T22:23:31.845Z,95079.23
2023-08-07T22:26:01.161Z,95077.30
2023-08-07T22:28:29.641Z,95078.13
2023-08-07T22:30:58.168Z,95075.71
2023-08-07T22:33:26.880Z,95080.25
2023-08-07T22:35:55.485Z,95087.40
2023-08-07T22:42:47.050Z,95073.77
2023-08-07T22:45:15.719Z,95075.74
2023-08-07T22:47:44.202Z,95076.84
2023-08-07T22:50:12.892Z,95080.20
2023-08-07T22:52:44.298Z,95085.20
2023-08-07T22:55:12.812Z,95084.33
2023-08-07T22:58:26.302Z,95083.34
2023-08-07T23:00:54.878Z,95086.17
2023-08-07T23:03:23.450Z,95085.02
2023-08-07T23:05:52.298Z,95078.27
2023-08-07T23:08:56.783Z,95074.14
2023-08-07T23:11:56.300Z,95073.94
2023-08-07T23:14:25.172Z,95079.44
2023-08-07T23:16:53.863Z,95080.16
2023-08-07T23:19:22.435Z,95089.69
2023-08-07T23:21:50.828Z,95087.58
2023-08-07T23:24:19.395Z,95087.70
2023-08-07T23:27:13.941Z,95090.40
2023-08-07T23:29:43.102Z,95088.70
2023-08-07T23:32:11.639Z,95087.88
2023-08-07T23:34:40.102Z,95083.45
2023-08-07T23:42:49.631Z,95085.67
2023-08-07T23:47:22.546Z,95079.89
2023-08-07T23:51:33.082Z,95087.98
2023-08-07T23:55:16.869Z,95088.69
